Terminal Aerodrome Forecast
Issued by NWS Burlington, VT

Current Version | Previous Version | Text Only | Print | Product List | Glossary On
Versions: 1 2 3 4 5 6 7 8 9 10 11 12 13 14 15 16 17 18 19 20
000 FTUS41 KBTV 221854 AAA TAFBTV TAF AMD KBTV 221854Z 2219/2318 34013KT P6SM VCSH BKN011 OVC035 TEMPO 2220/2224 5SM -RA BR BKN008 FM230000 35013KT 6SM -DZ BR OVC008 FM230700 36015KT 3SM -RA BR OVC005=

USA.gov is the U.S. government's official web portal to all federal, state and local government web resources and services.